EmailTwitter


Observations de surface / France / LFBO (07630)

Régions: Québec | Canada | États-Unis | Europe | France | UK | Ailleurs
Station
Affichage
Infos & localisation pour LFBO (07630) | Aide pour décoder les METARs

Observations prises le 2020-09-23 à 10H00 UTC à TOULOUSE/BLAGNAC, FR (LFBO)

Température: 23.0 Celsius

Point de rosée: 15.0 Celsius

Humidité relative: 61%

Indice Humidex: 27.

Vents: Sud-est à 17 km/h ou 9 noeuds.

Pression au niveau moyen de la mer: 101.10 kilopascals.

Observation METAR:

LFBO 231000Z AUTO 12009KT CAVOK 23/15 Q1011 NOSIG=